Time;durP1;ratioP1;P1;durP2;ratioP2;P2;SDS_P1;SDS_P2;PMS_P1;PMS_P2;Temp;Humidity;BMP_temperature;BMP_pressure;BME280_temperature;BME280_humidity;BME280_pressure;Samples;Min_cycle;Max_cycle;Signal;HPM_P1;HPM_P2
2023/02/25 00:01:07;;;;;;;5.10;1.67;;;4.40;99.90;;;;;;4410937;32;20528;-76
2023/02/25 00:03:33;;;;;;;0.40;0.40;;;4.40;99.90;;;;;;4409834;32;20082;-76
2023/02/25 00:06:01;;;;;;;0.68;0.68;;;4.30;99.90;;;;;;4411066;32;20073;-76
2023/02/25 00:08:26;;;;;;;0.98;0.82;;;4.30;99.90;;;;;;4412683;32;20070;-76
2023/02/25 00:11:01;;;;;;;0.70;0.70;;;4.30;99.90;;;;;;4412890;32;20572;-76
2023/02/25 00:13:27;;;;;;;3.40;0.75;;;4.30;99.90;;;;;;4409809;32;20113;-75
2023/02/25 00:15:53;;;;;;;0.45;0.45;;;4.30;99.90;;;;;;4409435;32;20097;-76
2023/02/25 00:18:19;;;;;;;1.48;1.37;;;4.30;99.90;;;;;;4411989;32;20532;-76
2023/02/25 00:20:44;;;;;;;3.50;0.95;;;4.40;99.90;;;;;;4413268;32;20061;-77
2023/02/25 00:23:10;;;;;;;0.60;0.60;;;4.30;99.90;;;;;;4413823;32;20156;-76
2023/02/25 00:25:35;;;;;;;19.27;1.15;;;4.40;99.90;;;;;;4411199;32;20466;-76
2023/02/25 00:28:05;;;;;;;17.87;2.37;;;4.30;99.90;;;;;;4413072;32;20110;-76
2023/02/25 00:30:34;;;;;;;0.40;0.40;;;4.30;99.90;;;;;;4413727;32;20325;-76
2023/02/25 00:33:01;;;;;;;61.47;1.62;;;4.30;99.90;;;;;;4411934;32;20570;-76
2023/02/25 00:35:26;;;;;;;1.15;1.05;;;4.20;99.90;;;;;;4415447;32;20181;-76
2023/02/25 00:37:53;;;;;;;3.25;1.30;;;4.20;99.90;;;;;;4420014;32;20084;-75
2023/02/25 00:40:19;;;;;;;2.22;1.58;;;4.20;99.90;;;;;;4437716;27;20054;-75
2023/02/25 00:42:44;;;;;;;2.50;1.87;;;4.20;99.90;;;;;;4402604;32;20090;-76
2023/02/25 00:45:11;;;;;;;0.40;0.40;;;4.10;99.90;;;;;;4404120;32;20061;-76
2023/02/25 00:47:37;;;;;;;0.73;0.73;;;4.10;99.90;;;;;;4406265;32;20062;-75
2023/02/25 00:50:08;;;;;;;0.40;0.40;;;4.00;99.90;;;;;;4403282;32;20122;-76
2023/02/25 00:52:36;;;;;;;0.73;0.73;;;3.90;99.90;;;;;;4402572;32;20154;-75
2023/02/25 00:55:02;;;;;;;0.80;0.80;;;3.70;99.90;;;;;;4400632;32;20093;-75
2023/02/25 00:57:27;;;;;;;0.40;0.40;;;3.60;99.90;;;;;;4400228;32;20054;-75
2023/02/25 00:59:53;;;;;;;0.40;0.40;;;3.50;99.90;;;;;;4396920;32;20151;-77
2023/02/25 01:02:18;;;;;;;0.40;0.40;;;3.50;99.90;;;;;;4397493;32;20054;-75
2023/02/25 01:04:44;;;;;;;0.30;0.30;;;3.60;99.90;;;;;;4400131;32;20394;-75
2023/02/25 01:07:10;;;;;;;0.40;0.40;;;3.60;99.90;;;;;;4395854;32;20536;-75
2023/02/25 01:09:36;;;;;;;0.30;0.30;;;3.70;99.90;;;;;;4391090;32;20074;-75
2023/02/25 01:12:03;;;;;;;0.35;0.35;;;3.70;99.90;;;;;;4397024;32;20090;-75
2023/02/25 01:14:28;;;;;;;1.30;0.68;;;3.70;99.90;;;;;;4394935;32;20059;-76
2023/02/25 01:16:56;;;;;;;0.50;0.50;;;3.80;99.90;;;;;;4395668;32;20070;-75
2023/02/25 01:19:24;;;;;;;0.40;0.40;;;3.80;99.90;;;;;;4397449;32;20085;-76
2023/02/25 01:21:55;;;;;;;0.40;0.40;;;3.80;99.90;;;;;;4396146;32;20074;-76
2023/02/25 01:24:26;;;;;;;0.30;0.30;;;3.90;99.90;;;;;;4395549;32;20082;-76
2023/02/25 01:26:55;;;;;;;0.40;0.40;;;3.90;99.90;;;;;;4392747;32;20066;-76
2023/02/25 01:29:25;;;;;;;0.57;0.57;;;3.90;99.90;;;;;;4392952;32;20078;-76
2023/02/25 01:31:54;;;;;;;0.40;0.40;;;3.90;99.90;;;;;;4403782;32;20061;-76
2023/02/25 01:34:20;;;;;;;0.50;0.50;;;4.00;99.90;;;;;;4409250;32;20117;-75
2023/02/25 01:36:46;;;;;;;0.37;0.37;;;3.90;99.90;;;;;;4411985;32;20546;-74
2023/02/25 01:39:13;;;;;;;0.60;0.60;;;3.90;99.90;;;;;;4410161;32;20909;-76
2023/02/25 01:41:39;;;;;;;0.50;0.50;;;3.90;99.90;;;;;;4410125;32;20089;-76
2023/02/25 01:44:12;;;;;;;0.40;0.40;;;3.90;99.90;;;;;;4408415;32;20127;-75
2023/02/25 01:46:39;;;;;;;0.30;0.30;;;3.90;99.90;;;;;;4409501;32;20142;-75
2023/02/25 01:49:13;;;;;;;0.70;0.70;;;3.90;99.90;;;;;;4412632;32;20086;-76
2023/02/25 01:51:40;;;;;;;2.72;1.58;;;3.90;99.90;;;;;;4410530;32;20065;-76
2023/02/25 01:54:09;;;;;;;1.95;1.58;;;3.90;99.90;;;;;;4412096;32;20081;-75
2023/02/25 01:56:37;;;;;;;0.50;0.50;;;3.90;99.90;;;;;;4410550;32;20125;-75
2023/02/25 01:59:03;;;;;;;0.60;0.60;;;3.90;99.90;;;;;;4414034;32;20081;-75
2023/02/25 02:01:32;;;;;;;0.30;0.30;;;4.00;99.90;;;;;;4412523;32;20062;-76
2023/02/25 02:04:02;;;;;;;0.30;0.30;;;4.00;99.90;;;;;;4412986;32;20074;-75
2023/02/25 02:06:33;;;;;;;0.50;0.50;;;4.00;99.90;;;;;;4411611;32;20058;-76
2023/02/25 02:09:00;;;;;;;0.40;0.40;;;4.00;99.90;;;;;;4409631;32;20078;-76
2023/02/25 02:11:26;;;;;;;0.30;0.30;;;4.00;99.90;;;;;;4414401;32;20053;-76
2023/02/25 02:13:55;;;;;;;1.10;1.05;;;4.00;99.90;;;;;;4414812;32;20120;-75
2023/02/25 02:16:55;;;;;;;0.30;0.30;;;4.00;99.90;;;;;;4415459;32;20078;-77
2023/02/25 02:19:46;;;;;;;0.40;0.40;;;4.10;99.90;;;;;;4402810;32;20093;-77
2023/02/25 02:22:17;;;;;;;0.40;0.40;;;4.00;99.90;;;;;;4403059;32;20431;-77
2023/02/25 02:24:50;;;;;;;1.12;0.88;;;4.00;99.90;;;;;;4412377;32;20089;-76
2023/02/25 02:27:23;;;;;;;0.40;0.40;;;4.10;99.90;;;;;;4416871;32;20122;-75
2023/02/25 02:30:24;;;;;;;0.85;0.85;;;4.00;99.90;;;;;;4421761;32;20065;-76
2023/02/25 02:33:11;;;;;;;0.68;0.68;;;4.10;99.90;;;;;;4406172;32;20157;-76
2023/02/25 02:35:50;;;;;;;0.40;0.40;;;4.10;99.90;;;;;;4406538;32;20078;-77
2023/02/25 02:38:32;;;;;;;0.40;0.40;;;4.10;99.90;;;;;;4416275;32;20093;-77
2023/02/25 02:41:09;;;;;;;0.30;0.30;;;4.00;99.90;;;;;;4421046;32;20109;-76
2023/02/25 02:43:39;;;;;;;1.20;1.10;;;4.00;99.90;;;;;;4420963;32;20109;-77
2023/02/25 02:46:12;;;;;;;;;;;4.00;99.90;;;;;;4417157;32;20083;-76
2023/02/25 02:48:57;;;;;;;0.30;0.30;;;4.00;99.90;;;;;;4418379;32;19965;-75
2023/02/25 02:51:32;;;;;;;0.37;0.37;;;4.10;99.90;;;;;;4422494;32;20088;-77
2023/02/25 02:54:00;;;;;;;0.40;0.40;;;4.10;99.90;;;;;;4419465;32;20085;-75
2023/02/25 02:56:28;;;;;;;0.40;0.40;;;4.00;99.90;;;;;;4421987;32;20062;-76
2023/02/25 02:59:01;;;;;;;0.40;0.40;;;4.00;99.90;;;;;;4423424;32;20086;-75
2023/02/25 03:01:30;;;;;;;0.32;0.32;;;4.00;99.90;;;;;;4422466;32;20066;-76
2023/02/25 03:04:03;;;;;;;0.30;0.30;;;4.10;99.90;;;;;;4421772;32;20062;-76
2023/02/25 03:06:33;;;;;;;0.40;0.40;;;4.00;99.90;;;;;;4420000;27;20305;-75
2023/02/25 03:09:07;;;;;;;0.40;0.40;;;4.00;99.90;;;;;;4401490;32;20528;-75
2023/02/25 03:11:33;;;;;;;0.40;0.40;;;4.10;99.90;;;;;;4401515;32;20154;-77
2023/02/25 03:13:59;;;;;;;0.40;0.40;;;4.00;99.90;;;;;;4398900;32;20183;-76
2023/02/25 03:16:33;;;;;;;0.37;0.37;;;4.00;99.90;;;;;;4398577;32;20085;-76
2023/02/25 03:19:10;;;;;;;0.40;0.40;;;4.00;99.90;;;;;;4403495;32;20446;-77
2023/02/25 03:21:42;;;;;;;0.60;0.60;;;4.00;99.90;;;;;;4401517;32;20094;-76
2023/02/25 03:24:13;;;;;;;4.40;0.85;;;4.00;99.90;;;;;;4401860;32;20068;-76
2023/02/25 03:26:41;;;;;;;;;;;4.00;99.90;;;;;;4398955;32;20089;-75
2023/02/25 03:29:14;;;;;;;0.40;0.40;;;3.90;99.90;;;;;;4401422;32;19953;-77
2023/02/25 03:31:46;;;;;;;0.47;0.47;;;4.00;99.90;;;;;;4395965;32;20123;-76
2023/02/25 03:34:18;;;;;;;0.40;0.40;;;4.00;99.90;;;;;;4391590;32;20208;-77
2023/02/25 03:36:50;;;;;;;0.52;0.52;;;4.10;99.90;;;;;;4395701;32;20438;-76
2023/02/25 03:39:21;;;;;;;0.30;0.30;;;4.10;99.90;;;;;;4390984;32;20106;-75
2023/02/25 03:41:51;;;;;;;0.37;0.37;;;3.90;99.90;;;;;;4389779;32;20118;-77
2023/02/25 03:44:22;;;;;;;0.45;0.45;;;4.00;99.90;;;;;;4393585;32;20051;-76
2023/02/25 03:46:48;;;;;;;0.40;0.40;;;3.90;99.90;;;;;;4388318;32;20579;-77
2023/02/25 03:49:20;;;;;;;0.52;0.52;;;3.90;99.90;;;;;;4390223;32;20098;-75
2023/02/25 03:51:49;;;;;;;0.37;0.37;;;3.90;99.90;;;;;;4389730;32;20098;-76
2023/02/25 03:54:15;;;;;;;0.40;0.40;;;4.00;99.90;;;;;;4391429;32;20082;-76
2023/02/25 03:56:43;;;;;;;0.40;0.40;;;4.00;99.90;;;;;;4392793;32;20581;-76
2023/02/25 03:59:09;;;;;;;0.30;0.30;;;3.90;99.90;;;;;;4392025;32;20162;-76
2023/02/25 04:01:34;;;;;;;0.32;0.32;;;3.90;99.90;;;;;;4392247;32;20584;-75
2023/02/25 04:04:00;;;;;;;0.40;0.40;;;3.90;99.90;;;;;;4395227;32;20066;-76
2023/02/25 04:06:25;;;;;;;0.37;0.37;;;3.90;99.90;;;;;;4393045;32;20073;-76
2023/02/25 04:08:51;;;;;;;0.40;0.40;;;3.80;99.90;;;;;;4392966;32;20074;-76
2023/02/25 04:11:16;;;;;;;0.30;0.30;;;3.80;99.90;;;;;;4391150;32;20078;-76
2023/02/25 04:13:42;;;;;;;0.40;0.40;;;3.80;99.90;;;;;;4393200;32;20058;-75
2023/02/25 04:16:07;;;;;;;0.40;0.40;;;3.70;99.90;;;;;;4390357;32;20514;-77
2023/02/25 04:18:33;;;;;;;0.40;0.40;;;3.70;99.90;;;;;;4391520;32;20075;-76
2023/02/25 04:20:59;;;;;;;0.40;0.40;;;3.70;99.90;;;;;;4391688;32;20540;-77
2023/02/25 04:23:25;;;;;;;0.40;0.40;;;3.70;99.90;;;;;;4392845;32;20071;-74
2023/02/25 04:25:51;;;;;;;0.40;0.40;;;3.70;99.90;;;;;;4392592;32;20085;-76
2023/02/25 04:28:16;;;;;;;0.37;0.37;;;3.70;99.90;;;;;;4390235;32;20509;-75
2023/02/25 04:30:42;;;;;;;0.43;0.43;;;3.60;99.90;;;;;;4392535;32;20193;-77
2023/02/25 04:33:10;;;;;;;0.40;0.40;;;3.70;99.90;;;;;;4392317;32;20596;-77
2023/02/25 04:35:35;;;;;;;0.40;0.40;;;3.70;99.90;;;;;;4391591;32;20069;-75
2023/02/25 04:38:01;;;;;;;0.40;0.40;;;3.60;99.90;;;;;;4390503;32;20212;-76
2023/02/25 04:40:26;;;;;;;0.45;0.45;;;3.60;99.90;;;;;;4391298;32;21262;-77
2023/02/25 04:42:52;;;;;;;0.40;0.40;;;3.60;99.90;;;;;;4392008;32;20549;-75
2023/02/25 04:45:17;;;;;;;0.40;0.40;;;3.60;99.90;;;;;;4390425;32;20141;-77
2023/02/25 04:47:43;;;;;;;0.30;0.30;;;3.60;99.90;;;;;;4391637;32;20066;-77
2023/02/25 04:50:10;;;;;;;0.40;0.40;;;3.50;99.90;;;;;;4392929;32;20110;-76
2023/02/25 04:52:35;;;;;;;0.40;0.40;;;3.60;99.90;;;;;;4391321;32;20062;-77
2023/02/25 04:55:01;;;;;;;0.40;0.40;;;3.70;99.90;;;;;;4389349;32;20082;-77
2023/02/25 04:57:27;;;;;;;0.30;0.30;;;3.60;99.90;;;;;;4392687;32;20093;-76
2023/02/25 04:59:52;;;;;;;0.40;0.40;;;3.60;99.90;;;;;;4393179;32;20166;-76
2023/02/25 05:02:18;;;;;;;0.40;0.40;;;3.60;99.90;;;;;;4390173;32;20101;-75
2023/02/25 05:04:44;;;;;;;0.47;0.47;;;3.60;99.90;;;;;;4391720;32;20545;-76
2023/02/25 05:07:09;;;;;;;0.30;0.30;;;3.50;99.90;;;;;;4391886;32;20062;-75
2023/02/25 05:09:35;;;;;;;0.32;0.32;;;3.50;99.90;;;;;;4392454;32;20144;-76
2023/02/25 05:12:01;;;;;;;0.40;0.40;;;3.60;99.90;;;;;;4388889;32;20070;-75
2023/02/25 05:14:27;;;;;;;0.40;0.40;;;3.50;99.90;;;;;;4391794;32;20152;-77
2023/02/25 05:16:53;;;;;;;0.40;0.40;;;3.60;99.90;;;;;;4393981;32;20119;-76
2023/02/25 05:19:21;;;;;;;0.30;0.30;;;3.50;99.90;;;;;;4389552;32;20404;-76
2023/02/25 05:21:47;;;;;;;0.40;0.40;;;3.50;99.90;;;;;;4393340;32;20134;-76
2023/02/25 05:24:13;;;;;;;0.35;0.35;;;3.50;99.90;;;;;;4391323;32;20134;-75
2023/02/25 05:26:38;;;;;;;0.50;0.50;;;3.50;99.90;;;;;;4390136;32;20571;-77
2023/02/25 05:29:04;;;;;;;0.40;0.40;;;3.50;99.90;;;;;;4391268;32;20194;-76
2023/02/25 05:31:30;;;;;;;0.30;0.30;;;3.50;99.90;;;;;;4393187;32;20082;-75
2023/02/25 05:33:55;;;;;;;0.47;0.47;;;3.50;99.90;;;;;;4391873;32;20426;-76
2023/02/25 05:36:21;;;;;;;0.40;0.40;;;3.40;99.90;;;;;;4392837;32;20110;-78
2023/02/25 05:38:47;;;;;;;0.85;0.52;;;3.40;99.90;;;;;;4377289;32;20098;-76
2023/02/25 05:41:13;;;;;;;0.40;0.40;;;3.40;99.90;;;;;;4393966;32;20071;-76
2023/02/25 05:43:40;;;;;;;0.55;0.55;;;3.40;99.90;;;;;;4391954;32;20085;-74
2023/02/25 05:46:10;;;;;;;0.50;0.50;;;3.30;99.90;;;;;;4394520;32;20530;-76
2023/02/25 05:48:36;;;;;;;0.50;0.50;;;3.30;99.90;;;;;;4393561;32;20081;-75
2023/02/25 05:51:05;;;;;;;0.45;0.45;;;3.30;99.90;;;;;;4392456;32;20142;-76
2023/02/25 05:53:30;;;;;;;0.45;0.45;;;3.30;99.90;;;;;;4393365;32;20090;-76
2023/02/25 05:55:56;;;;;;;0.40;0.40;;;3.30;99.90;;;;;;4391847;32;20632;-76
2023/02/25 05:58:22;;;;;;;0.40;0.40;;;3.30;99.90;;;;;;4390846;32;20066;-74
2023/02/25 06:00:49;;;;;;;0.30;0.30;;;3.20;99.90;;;;;;4394563;32;20070;-77
2023/02/25 06:03:15;;;;;;;0.40;0.40;;;3.10;99.90;;;;;;4389400;32;20085;-76
2023/02/25 06:05:41;;;;;;;0.40;0.40;;;3.10;99.90;;;;;;4393696;32;20169;-75
2023/02/25 06:08:09;;;;;;;0.50;0.50;;;3.00;99.90;;;;;;4392481;32;20109;-77
2023/02/25 06:10:37;;;;;;;0.40;0.40;;;2.90;99.90;;;;;;4392584;32;20101;-76
2023/02/25 06:13:04;;;;;;;0.50;0.50;;;2.90;99.90;;;;;;4391800;32;20850;-76
2023/02/25 06:15:30;;;;;;;0.32;0.32;;;2.90;99.90;;;;;;4392015;32;20062;-77
2023/02/25 06:17:55;;;;;;;0.43;0.43;;;2.80;99.90;;;;;;4390983;32;20110;-76
2023/02/25 06:20:24;;;;;;;0.40;0.40;;;2.80;99.90;;;;;;4394106;32;20058;-75
2023/02/25 06:22:51;;;;;;;0.50;0.50;;;2.80;99.90;;;;;;4392759;32;20122;-77
2023/02/25 06:25:17;;;;;;;0.65;0.65;;;2.80;99.90;;;;;;4393488;32;20074;-75
2023/02/25 06:27:42;;;;;;;0.40;0.40;;;2.80;99.90;;;;;;4390376;32;20536;-76
2023/02/25 06:30:09;;;;;;;0.40;0.40;;;2.80;99.90;;;;;;4392902;32;20087;-76
2023/02/25 06:32:35;;;;;;;0.30;0.30;;;2.80;99.90;;;;;;4392619;32;20108;-75
2023/02/25 06:35:00;;;;;;;0.30;0.30;;;2.80;99.90;;;;;;4391507;32;20062;-75
2023/02/25 06:37:26;;;;;;;0.43;0.43;;;2.80;99.90;;;;;;4394556;32;20093;-78
2023/02/25 06:39:52;;;;;;;0.40;0.40;;;2.80;99.90;;;;;;4392272;32;20102;-76
2023/02/25 06:42:18;;;;;;;0.30;0.30;;;2.80;99.90;;;;;;4390432;32;20094;-75
2023/02/25 06:44:43;;;;;;;0.30;0.30;;;2.80;99.90;;;;;;4391865;32;20061;-76
2023/02/25 06:47:10;;;;;;;0.50;0.50;;;2.80;99.90;;;;;;4392014;32;20065;-76
2023/02/25 06:49:36;;;;;;;0.40;0.40;;;2.80;99.90;;;;;;4392160;32;20067;-77
2023/02/25 06:52:01;;;;;;;0.37;0.37;;;2.80;99.90;;;;;;4391219;32;20074;-76
2023/02/25 06:54:26;;;;;;;0.40;0.40;;;2.80;99.90;;;;;;4392987;32;20081;-76
2023/02/25 06:56:53;;;;;;;0.50;0.50;;;2.90;99.90;;;;;;4392034;32;20544;-76
2023/02/25 06:59:18;;;;;;;0.50;0.50;;;2.90;99.90;;;;;;4391182;32;20122;-76
2023/02/25 07:01:44;;;;;;;0.40;0.40;;;2.90;99.90;;;;;;4390754;32;20438;-76
2023/02/25 07:04:14;;;;;;;0.40;0.40;;;2.90;99.90;;;;;;4389707;32;20061;-76
2023/02/25 07:06:41;;;;;;;0.40;0.40;;;2.90;99.90;;;;;;4391926;32;20083;-75
2023/02/25 07:09:06;;;;;;;0.40;0.40;;;3.00;99.90;;;;;;4391762;32;20074;-77
2023/02/25 07:11:34;;;;;;;0.40;0.40;;;3.00;99.90;;;;;;4391652;32;20065;-75
2023/02/25 07:14:00;;;;;;;0.47;0.47;;;2.90;99.90;;;;;;4390034;32;20117;-77
2023/02/25 07:16:28;;;;;;;0.40;0.40;;;3.00;99.90;;;;;;4392941;32;20117;-75
2023/02/25 07:18:54;;;;;;;0.47;0.47;;;3.00;99.90;;;;;;4392711;32;20082;-76
2023/02/25 07:21:20;;;;;;;0.40;0.40;;;3.10;99.90;;;;;;4393390;32;20102;-76
2023/02/25 07:23:46;;;;;;;0.43;0.43;;;3.10;99.90;;;;;;4392045;32;20062;-76
2023/02/25 07:26:12;;;;;;;0.40;0.40;;;3.10;99.90;;;;;;4394032;32;20528;-76
2023/02/25 07:28:38;;;;;;;0.40;0.40;;;3.10;99.90;;;;;;4394836;32;20564;-76
2023/02/25 07:31:10;;;;;;;0.50;0.50;;;3.10;99.90;;;;;;4393808;32;20078;-76
2023/02/25 07:33:35;;;;;;;0.40;0.40;;;3.10;99.90;;;;;;4392697;32;20125;-76
2023/02/25 07:36:00;;;;;;;0.40;0.40;;;3.20;99.90;;;;;;4392588;32;20089;-76
2023/02/25 07:38:26;;;;;;;0.40;0.40;;;3.20;99.90;;;;;;4392483;32;20629;-76
2023/02/25 07:40:53;;;;;;;0.40;0.40;;;3.20;99.90;;;;;;4391441;32;20144;-76
2023/02/25 07:43:18;;;;;;;0.40;0.40;;;3.20;99.90;;;;;;4392372;32;20472;-75
2023/02/25 07:45:44;;;;;;;1.48;0.93;;;3.20;99.90;;;;;;4394884;32;20195;-76
2023/02/25 07:48:09;;;;;;;0.35;0.35;;;3.20;99.90;;;;;;4390338;32;20110;-76
2023/02/25 07:50:35;;;;;;;0.40;0.40;;;3.20;99.90;;;;;;4395939;32;20086;-76
2023/02/25 07:53:01;;;;;;;0.30;0.30;;;3.30;99.90;;;;;;4390364;32;20078;-76
2023/02/25 07:55:27;;;;;;;0.40;0.40;;;3.30;99.90;;;;;;4392701;32;20198;-77
2023/02/25 07:57:52;;;;;;;0.40;0.40;;;3.30;99.90;;;;;;4393704;32;20086;-76
2023/02/25 08:00:18;;;;;;;0.30;0.30;;;3.20;99.90;;;;;;4392485;32;20118;-77
2023/02/25 08:02:44;;;;;;;0.40;0.40;;;3.20;99.90;;;;;;4393041;32;20152;-76
2023/02/25 08:05:10;;;;;;;0.45;0.45;;;3.10;99.90;;;;;;4391835;32;20070;-77
2023/02/25 08:07:36;;;;;;;0.40;0.40;;;3.10;99.90;;;;;;4391597;32;20065;-76
2023/02/25 08:10:01;;;;;;;0.75;0.70;;;3.10;99.90;;;;;;4391994;32;20123;-77
2023/02/25 08:12:28;;;;;;;0.35;0.35;;;3.20;99.90;;;;;;4393353;32;20078;-77
2023/02/25 08:14:54;;;;;;;0.30;0.30;;;3.30;99.90;;;;;;4394429;32;20125;-78
2023/02/25 08:17:19;;;;;;;0.55;0.55;;;3.20;99.90;;;;;;4391327;32;20109;-76
2023/02/25 08:19:46;;;;;;;0.30;0.30;;;3.20;99.90;;;;;;4393139;32;20505;-76
2023/02/25 08:22:11;;;;;;;0.40;0.40;;;3.10;99.90;;;;;;4393787;32;20078;-77
2023/02/25 08:24:39;;;;;;;0.60;0.60;;;3.20;99.90;;;;;;4390518;32;20111;-76
2023/02/25 08:27:07;;;;;;;0.40;0.40;;;3.30;99.90;;;;;;4392254;32;20485;-77
2023/02/25 08:29:34;;;;;;;0.40;0.40;;;3.30;99.90;;;;;;4392813;32;20620;-76
2023/02/25 08:31:59;;;;;;;0.37;0.37;;;3.30;99.90;;;;;;4391164;32;20082;-76
2023/02/25 08:34:24;;;;;;;0.40;0.40;;;3.20;99.90;;;;;;4391971;32;20102;-74
2023/02/25 08:36:51;;;;;;;0.40;0.40;;;3.30;99.90;;;;;;4389355;32;20828;-76
2023/02/25 08:39:17;;;;;;;0.40;0.40;;;3.30;99.90;;;;;;4391401;32;20070;-75
2023/02/25 08:41:43;;;;;;;0.40;0.40;;;3.30;99.90;;;;;;4387097;32;20094;-76
2023/02/25 08:44:10;;;;;;;0.40;0.40;;;3.50;99.90;;;;;;4387753;32;20109;-76
2023/02/25 08:46:36;;;;;;;0.40;0.40;;;3.50;99.90;;;;;;4389825;32;20110;-77
2023/02/25 08:49:02;;;;;;;0.60;0.60;;;3.50;99.90;;;;;;4386529;32;20656;-77
2023/02/25 08:51:32;;;;;;;0.50;0.50;;;3.60;99.90;;;;;;4388042;32;20359;-76
2023/02/25 08:53:59;;;;;;;0.43;0.43;;;3.50;99.90;;;;;;4390876;32;20081;-76
2023/02/25 08:56:25;;;;;;;0.40;0.40;;;3.50;99.90;;;;;;4388879;32;20085;-77
2023/02/25 08:58:53;;;;;;;0.40;0.40;;;3.40;99.90;;;;;;4391123;32;20161;-77
2023/02/25 09:01:19;;;;;;;0.40;0.40;;;3.40;99.90;;;;;;4391989;32;20644;-77
2023/02/25 09:03:51;;;;;;;0.40;0.40;;;3.40;99.90;;;;;;4390594;32;20070;-77
2023/02/25 09:06:19;;;;;;;0.40;0.40;;;3.50;99.90;;;;;;4390342;32;20544;-76
2023/02/25 09:08:44;;;;;;;0.40;0.40;;;3.50;99.90;;;;;;4390356;32;20524;-76
2023/02/25 09:11:09;;;;;;;0.60;0.60;;;3.50;99.90;;;;;;4393292;32;20083;-77
2023/02/25 09:13:35;;;;;;;0.40;0.40;;;3.50;99.90;;;;;;4392189;32;20093;-78
2023/02/25 09:16:01;;;;;;;0.40;0.40;;;3.50;99.90;;;;;;4391930;32;20558;-77
2023/02/25 09:18:29;;;;;;;0.30;0.30;;;3.60;99.90;;;;;;4391687;32;20093;-76
2023/02/25 09:20:54;;;;;;;0.40;0.40;;;3.70;99.90;;;;;;4392137;32;20469;-76
2023/02/25 09:23:19;;;;;;;0.30;0.30;;;3.70;99.90;;;;;;4391393;32;20166;-76
2023/02/25 09:25:45;;;;;;;0.40;0.40;;;3.70;99.90;;;;;;4392634;32;20462;-77
2023/02/25 09:28:12;;;;;;;0.32;0.32;;;3.70;99.90;;;;;;4393668;32;20082;-77
2023/02/25 09:30:38;;;;;;;0.37;0.37;;;3.70;99.90;;;;;;4392516;32;20087;-77
2023/02/25 09:33:03;;;;;;;0.40;0.40;;;3.70;99.90;;;;;;4390844;32;20066;-77
2023/02/25 09:35:30;;;;;;;0.30;0.30;;;3.80;99.90;;;;;;4392316;32;20106;-76
2023/02/25 09:37:57;;;;;;;0.30;0.30;;;3.80;99.90;;;;;;4393307;32;20147;-77
2023/02/25 09:40:22;;;;;;;0.40;0.40;;;3.90;99.90;;;;;;4391906;32;20081;-76
2023/02/25 09:43:13;;;;;;;0.30;0.30;;;3.90;99.90;;;;;;4390928;32;20129;-76
2023/02/25 09:45:46;;;;;;;0.40;0.40;;;4.00;99.90;;;;;;4392998;32;20091;-76
2023/02/25 09:48:18;;;;;;;0.40;0.40;;;4.10;99.90;;;;;;4394410;32;20144;-78
2023/02/25 09:50:50;;;;;;;0.30;0.30;;;4.30;99.90;;;;;;4388763;32;20070;-77
2023/02/25 09:53:26;;;;;;;0.40;0.40;;;4.40;99.90;;;;;;4393237;32;20116;-77
2023/02/25 09:55:52;;;;;;;0.35;0.35;;;4.40;99.90;;;;;;4391752;32;20062;-77
2023/02/25 09:58:41;;;;;;;0.30;0.30;;;4.30;99.90;;;;;;4392214;32;20081;-76
2023/02/25 10:01:16;;;;;;;0.40;0.40;;;4.10;99.90;;;;;;4380149;32;20128;-78
2023/02/25 10:03:47;;;;;;;0.40;0.40;;;4.00;99.90;;;;;;4391619;32;20082;-75
2023/02/25 10:06:36;;;;;;;0.43;0.43;;;4.00;99.90;;;;;;4395315;32;20082;-77
2023/02/25 10:09:14;;;;;;;0.40;0.40;;;3.90;99.90;;;;;;4391097;32;20360;-75
2023/02/25 10:11:57;;;;;;;0.30;0.30;;;4.00;99.90;;;;;;4391020;32;20078;-76
2023/02/25 10:14:42;;;;;;;0.70;0.65;;;3.90;99.90;;;;;;4378590;32;20450;-74
2023/02/25 10:17:42;;;;;;;0.32;0.32;;;4.00;99.90;;;;;;4391705;32;20568;-78
2023/02/25 10:20:29;;;;;;;0.40;0.40;;;4.00;99.90;;;;;;4384590;32;20087;-76
2023/02/25 10:23:11;;;;;;;0.40;0.40;;;4.00;99.90;;;;;;4376451;32;20105;-77
2023/02/25 10:25:42;;;;;;;0.35;0.35;;;4.20;99.90;;;;;;4393359;32;20070;-77
2023/02/25 10:28:16;;;;;;;0.30;0.30;;;4.10;99.90;;;;;;4391686;32;20158;-77
2023/02/25 10:30:58;;;;;;;0.40;0.40;;;4.00;99.90;;;;;;4391679;32;20149;-76
2023/02/25 10:33:25;;;;;;;0.30;0.30;;;3.80;99.90;;;;;;4390658;32;20110;-76
2023/02/25 10:35:58;;;;;;;0.30;0.30;;;3.70;99.90;;;;;;4388227;32;20740;-75
2023/02/25 10:38:24;;;;;;;0.32;0.32;;;3.60;99.90;;;;;;4391572;32;20090;-75
2023/02/25 10:40:54;;;;;;;0.40;0.40;;;3.70;99.90;;;;;;4393794;32;20089;-76
2023/02/25 10:43:23;;;;;;;0.40;0.40;;;3.70;99.90;;;;;;4390703;32;20077;-75
2023/02/25 10:46:13;;;;;;;0.32;0.32;;;3.90;99.90;;;;;;4391084;32;20394;-77
2023/02/25 10:48:41;;;;;;;0.90;0.77;;;3.90;99.90;;;;;;4390229;32;20062;-76
2023/02/25 10:51:12;;;;;;;0.30;0.30;;;3.90;99.90;;;;;;4392627;32;20097;-77
2023/02/25 10:53:39;;;;;;;0.30;0.30;;;4.00;99.90;;;;;;4394660;32;20085;-75
2023/02/25 10:56:05;;;;;;;0.32;0.32;;;4.00;99.90;;;;;;4393254;32;21105;-77
2023/02/25 10:58:43;;;;;;;0.30;0.30;;;3.90;99.90;;;;;;4395001;32;20132;-75
2023/02/25 11:01:15;;;;;;;0.30;0.30;;;3.90;99.90;;;;;;4393840;32;20434;-77
2023/02/25 11:03:50;;;;;;;0.40;0.40;;;3.90;99.90;;;;;;4391316;32;20062;-77
2023/02/25 11:06:23;;;;;;;0.30;0.30;;;4.00;99.90;;;;;;4397364;32;20513;-76
2023/02/25 11:08:48;;;;;;;0.32;0.32;;;4.00;99.90;;;;;;4391632;32;20106;-75
2023/02/25 11:11:18;;;;;;;0.40;0.40;;;4.00;99.90;;;;;;4393575;32;20079;-77
2023/02/25 11:13:51;;;;;;;0.35;0.35;;;4.10;99.90;;;;;;4394474;32;20097;-77
2023/02/25 11:16:17;;;;;;;0.30;0.30;;;4.10;99.90;;;;;;4393807;32;20130;-77
2023/02/25 11:18:43;;;;;;;0.40;0.40;;;4.00;99.90;;;;;;4394569;32;20556;-76
2023/02/25 11:21:12;;;;;;;0.40;0.40;;;4.10;99.90;;;;;;4395919;32;20078;-77
2023/02/25 11:23:45;;;;;;;1.08;1.00;;;4.00;99.90;;;;;;4393496;32;20077;-77
2023/02/25 11:26:31;;;;;;;0.30;0.30;;;4.00;99.90;;;;;;4393647;32;20074;-77
2023/02/25 11:29:09;;;;;;;0.30;0.30;;;4.20;99.90;;;;;;4394888;32;20122;-76
2023/02/25 11:31:39;;;;;;;0.50;0.50;;;4.20;99.90;;;;;;4396868;32;20877;-76
2023/02/25 11:34:14;;;;;;;0.50;0.50;;;4.20;99.90;;;;;;4391176;32;20129;-76
2023/02/25 11:36:40;;;;;;;0.40;0.40;;;4.20;99.90;;;;;;4392503;32;20125;-76
2023/02/25 11:39:15;;;;;;;0.30;0.30;;;4.10;99.90;;;;;;4389370;32;20066;-76
2023/02/25 11:41:42;;;;;;;0.40;0.40;;;4.10;99.90;;;;;;4391009;32;20185;-77
2023/02/25 11:44:26;;;;;;;0.30;0.30;;;4.30;99.90;;;;;;4389746;32;79069;-77
2023/02/25 11:46:57;;;;;;;0.40;0.40;;;4.40;99.90;;;;;;4394362;32;20127;-77
2023/02/25 11:49:51;;;;;;;0.40;0.40;;;4.50;99.90;;;;;;4392792;32;20093;-76
2023/02/25 11:52:40;;;;;;;0.30;0.30;;;4.40;99.90;;;;;;4381378;32;20101;-76
2023/02/25 11:55:09;;;;;;;0.40;0.40;;;4.50;99.90;;;;;;4391389;32;20134;-77
2023/02/25 11:57:49;;;;;;;0.40;0.40;;;4.50;99.90;;;;;;4390735;32;20214;-77
2023/02/25 12:00:25;;;;;;;0.30;0.30;;;4.60;99.90;;;;;;4391900;32;20099;-77
2023/02/25 12:03:12;;;;;;;0.40;0.40;;;4.50;99.90;;;;;;4390023;32;20545;-76
2023/02/25 12:06:06;;;;;;;0.40;0.40;;;4.40;99.90;;;;;;4390088;32;20097;-77
2023/02/25 12:08:58;;;;;;;0.32;0.32;;;4.10;99.90;;;;;;4377428;32;20090;-76
2023/02/25 12:11:39;;;;;;;0.40;0.40;;;3.60;99.90;;;;;;4380350;32;20101;-77
2023/02/25 12:14:24;;;;;;;0.40;0.40;;;3.50;99.90;;;;;;4390136;32;20530;-77
2023/02/25 12:17:18;;;;;;;0.40;0.40;;;3.30;99.90;;;;;;4392969;32;20074;-77
2023/02/25 12:20:03;;;;;;;0.40;0.40;;;3.50;99.90;;;;;;4392874;32;20130;-76
2023/02/25 12:23:01;;;;;;;0.40;0.40;;;3.70;99.90;;;;;;4389746;32;20097;-76
2023/02/25 12:25:42;;;;;;;0.40;0.40;;;3.80;99.90;;;;;;4380581;32;20505;-77
2023/02/25 12:28:40;;;;;;;0.40;0.40;;;3.90;99.90;;;;;;4391521;32;20124;-77
2023/02/25 12:31:30;;;;;;;0.30;0.30;;;4.00;99.90;;;;;;4380113;32;20078;-77
2023/02/25 12:34:13;;;;;;;0.40;0.40;;;4.00;99.90;;;;;;4376160;32;20091;-77
2023/02/25 12:36:55;;;;;;;0.40;0.40;;;4.00;99.90;;;;;;4392884;32;20094;-76
2023/02/25 12:40:00;;;;;;;0.30;0.30;;;4.10;99.90;;;;;;4388968;32;20410;-76
2023/02/25 12:42:53;;;;;;;0.43;0.43;;;4.00;99.90;;;;;;4376737;32;20109;-75
2023/02/25 12:45:43;;;;;;;0.30;0.30;;;3.70;99.90;;;;;;4378226;32;20542;-76
2023/02/25 12:48:33;;;;;;;0.40;0.40;;;3.50;99.90;;;;;;4375712;32;20169;-75
2023/02/25 12:51:24;;;;;;;0.75;0.65;;;3.30;99.90;;;;;;4388867;32;20095;-75
2023/02/25 12:54:11;;;;;;;0.40;0.40;;;3.20;99.90;;;;;;4379412;32;20446;-75
2023/02/25 12:57:17;;;;;;;0.40;0.40;;;3.30;99.90;;;;;;4390539;32;20148;-75
2023/02/25 13:00:22;;;;;;;0.40;0.40;;;3.40;99.90;;;;;;4379351;32;20413;-75
2023/02/25 13:02:56;;;;;;;0.40;0.40;;;3.60;99.90;;;;;;4381211;32;20130;-75
2023/02/25 13:05:45;;;;;;;0.40;0.40;;;3.60;99.90;;;;;;4390646;32;20513;-76
2023/02/25 13:08:31;;;;;;;0.30;0.30;;;3.60;99.90;;;;;;4376564;32;20404;-75
2023/02/25 13:11:06;;;;;;;0.30;0.30;;;3.80;99.90;;;;;;4390698;32;20548;-75
2023/02/25 13:13:55;;;;;;;0.40;0.40;;;3.70;99.90;;;;;;4389208;32;20125;-76
2023/02/25 13:16:26;;;;;;;0.40;0.40;;;3.50;99.90;;;;;;4387454;32;20114;-75